createdAt,value
2022-10-23T00:01:40.132Z,18.32
2022-10-23T00:04:17.928Z,18.19
2022-10-23T00:06:46.012Z,18.19
2022-10-23T00:09:17.006Z,18.02
2022-10-23T00:11:48.248Z,18.08
2022-10-23T00:14:17.059Z,18.12
2022-10-23T00:16:44.622Z,18.07
2022-10-23T00:19:11.896Z,17.96
2022-10-23T00:21:39.664Z,17.88
2022-10-23T00:24:07.360Z,17.82
2022-10-23T00:26:35.150Z,17.65
2022-10-23T00:29:02.217Z,17.79
2022-10-23T00:31:29.344Z,17.88
2022-10-23T00:33:56.428Z,17.79
2022-10-23T00:36:23.557Z,17.85
2022-10-23T00:38:51.229Z,17.79
2022-10-23T00:41:23.000Z,17.69
2022-10-23T00:44:06.683Z,17.65
2022-10-23T00:46:35.573Z,17.57
2022-10-23T00:49:03.648Z,17.58
2022-10-23T00:51:36.093Z,17.66
2022-10-23T00:54:24.032Z,17.49
2022-10-23T00:56:55.426Z,17.48
2022-10-23T00:59:22.599Z,17.51
2022-10-23T01:01:49.834Z,17.55
2022-10-23T01:04:17.225Z,17.53
2022-10-23T01:07:05.801Z,17.44
2022-10-23T01:09:35.844Z,17.42
2022-10-23T01:12:15.642Z,17.36
2022-10-23T01:15:15.294Z,17.38
2022-10-23T01:17:47.948Z,17.30
2022-10-23T01:20:33.814Z,17.36
2022-10-23T01:23:28.741Z,17.27
2022-10-23T01:26:26.037Z,17.39
2022-10-23T01:29:20.046Z,17.31
2022-10-23T01:31:56.638Z,17.14
2022-10-23T01:34:37.535Z,17.08
2022-10-23T01:37:09.126Z,16.99
2022-10-23T01:39:41.461Z,17.03
2022-10-23T01:42:12.091Z,17.01
2022-10-23T01:45:00.198Z,16.87
2022-10-23T01:47:36.257Z,16.89
2022-10-23T01:50:08.273Z,16.93
2022-10-23T01:52:36.036Z,16.95
2022-10-23T01:55:07.649Z,16.90
2022-10-23T01:57:37.543Z,16.88
2022-10-23T02:00:10.898Z,16.88
2022-10-23T02:02:52.896Z,16.95
2022-10-23T02:05:26.400Z,17.03
2022-10-23T02:07:55.532Z,16.83
2022-10-23T02:10:30.091Z,16.93
2022-10-23T02:13:13.584Z,16.85
2022-10-23T02:16:13.015Z,16.84
2022-10-23T02:19:12.554Z,16.79
2022-10-23T02:21:53.463Z,16.77
2022-10-23T02:24:34.637Z,16.72
2022-10-23T02:27:08.587Z,16.64
2022-10-23T02:29:40.511Z,16.66
2022-10-23T02:32:10.243Z,16.60
2022-10-23T02:34:38.243Z,16.61
2022-10-23T02:37:05.723Z,16.56
2022-10-23T02:39:33.025Z,16.61
2022-10-23T02:42:26.832Z,16.61
2022-10-23T02:45:14.791Z,16.61
2022-10-23T02:48:07.435Z,16.60
2022-10-23T02:50:56.370Z,16.53
2022-10-23T02:53:30.131Z,16.37
2022-10-23T02:56:09.340Z,16.48
2022-10-23T02:58:47.066Z,16.45
2022-10-23T03:01:19.744Z,16.43
2022-10-23T03:03:53.086Z,16.43
2022-10-23T03:06:22.109Z,16.47
2022-10-23T03:08:57.886Z,16.45
2022-10-23T03:11:26.180Z,16.43
2022-10-23T03:13:53.229Z,16.35
2022-10-23T03:16:20.325Z,16.25
2022-10-23T03:18:52.396Z,16.24
2022-10-23T03:21:19.953Z,16.35
2022-10-23T03:23:49.432Z,16.23
2022-10-23T03:26:20.935Z,16.30
2022-10-23T03:28:48.517Z,16.30
2022-10-23T03:31:17.243Z,16.31
2022-10-23T03:33:45.916Z,16.33
2022-10-23T03:36:13.006Z,16.27
2022-10-23T03:38:40.695Z,16.21
2022-10-23T03:41:07.781Z,16.20
2022-10-23T03:43:34.795Z,16.21
2022-10-23T03:46:02.875Z,16.10
2022-10-23T03:48:29.904Z,16.12
2022-10-23T03:50:58.972Z,16.17
2022-10-23T03:53:26.061Z,16.18
2022-10-23T03:55:53.177Z,16.17
2022-10-23T03:58:20.275Z,16.14
2022-10-23T04:00:47.327Z,16.10
2022-10-23T04:03:14.477Z,16.09
2022-10-23T04:05:42.909Z,15.99
2022-10-23T04:08:10.695Z,16.12
2022-10-23T04:10:38.124Z,16.09
2022-10-23T04:13:05.244Z,16.05
2022-10-23T04:15:35.686Z,15.87
2022-10-23T04:18:02.851Z,15.85
2022-10-23T04:20:32.442Z,16.04
2022-10-23T04:23:02.562Z,16.02
2022-10-23T04:25:29.674Z,15.95
2022-10-23T04:27:56.928Z,15.89
2022-10-23T04:30:24.164Z,15.91
2022-10-23T04:32:51.971Z,15.90
2022-10-23T04:35:20.159Z,15.93
2022-10-23T04:37:47.400Z,15.88
2022-10-23T04:40:14.542Z,15.72
2022-10-23T04:42:41.891Z,15.79
2022-10-23T04:45:09.417Z,15.82
2022-10-23T04:47:36.660Z,15.79
2022-10-23T04:50:04.528Z,15.77
2022-10-23T04:52:55.188Z,15.81
2022-10-23T04:55:52.943Z,15.92
2022-10-23T04:58:49.561Z,16.04
2022-10-23T05:01:16.874Z,15.99
2022-10-23T05:03:44.519Z,15.65
2022-10-23T05:06:11.622Z,15.79
2022-10-23T05:08:57.282Z,15.79
2022-10-23T05:11:56.217Z,15.73
2022-10-23T05:14:23.388Z,15.67
2022-10-23T05:17:20.924Z,15.76
2022-10-23T05:19:54.840Z,15.73
2022-10-23T05:22:26.276Z,15.71
2022-10-23T05:24:55.013Z,15.80
2022-10-23T05:27:25.366Z,15.70
2022-10-23T05:29:54.664Z,15.74
2022-10-23T05:32:27.807Z,15.78
2022-10-23T05:34:55.584Z,15.82
2022-10-23T05:37:26.785Z,15.80
2022-10-23T05:40:03.877Z,15.97
2022-10-23T05:42:32.979Z,15.90
2022-10-23T05:45:00.627Z,16.02
2022-10-23T05:48:10.896Z,15.99
2022-10-23T05:51:10.499Z,15.98
2022-10-23T05:54:00.531Z,15.98
2022-10-23T05:56:33.777Z,16.01
2022-10-23T05:59:10.867Z,15.93
2022-10-23T06:02:04.383Z,16.01
2022-10-23T06:04:43.678Z,15.95
2022-10-23T06:07:29.220Z,15.96
2022-10-23T06:10:00.593Z,16.00
2022-10-23T06:12:28.255Z,16.03
2022-10-23T06:14:55.888Z,16.07
2022-10-23T06:17:30.471Z,16.00
2022-10-23T06:20:02.737Z,15.99
2022-10-23T06:22:35.050Z,15.98
2022-10-23T06:25:16.297Z,15.95
2022-10-23T06:27:44.586Z,15.99
2022-10-23T06:30:12.506Z,15.98
2022-10-23T06:32:39.957Z,15.98
2022-10-23T06:35:13.021Z,15.98
2022-10-23T06:37:42.718Z,15.93
2022-10-23T06:40:18.341Z,15.94
2022-10-23T06:42:58.234Z,15.90
2022-10-23T06:45:35.357Z,15.94
2022-10-23T06:48:11.239Z,15.90
2022-10-23T06:50:41.961Z,16.13
2022-10-23T06:53:13.449Z,16.15
2022-10-23T06:55:50.028Z,16.14
2022-10-23T06:58:21.010Z,16.11
2022-10-23T07:01:16.940Z,16.07
2022-10-23T07:03:54.856Z,16.06
2022-10-23T07:06:26.364Z,16.03
2022-10-23T07:08:54.066Z,16.06
2022-10-23T07:11:50.516Z,16.12
2022-10-23T07:14:19.131Z,16.09
2022-10-23T07:16:46.501Z,16.25
2022-10-23T07:19:13.841Z,16.27
2022-10-23T07:21:43.982Z,16.15
2022-10-23T07:24:25.096Z,16.20
2022-10-23T07:26:54.165Z,16.19
2022-10-23T07:29:24.997Z,16.26
2022-10-23T07:31:56.265Z,16.34
2022-10-23T07:34:42.160Z,16.28
2022-10-23T07:37:33.590Z,16.46
2022-10-23T07:40:05.399Z,16.38
2022-10-23T07:42:36.958Z,16.41
2022-10-23T07:45:04.876Z,16.52
2022-10-23T07:47:32.802Z,16.50
2022-10-23T07:50:01.127Z,16.56
2022-10-23T07:52:32.054Z,16.59
2022-10-23T07:55:13.220Z,16.62
2022-10-23T07:57:47.143Z,16.63
2022-10-23T08:00:27.160Z,16.60
2022-10-23T08:03:02.985Z,16.62
2022-10-23T08:05:32.040Z,16.73
2022-10-23T08:08:01.574Z,16.71
2022-10-23T08:10:29.510Z,16.72
2022-10-23T08:12:56.787Z,16.62
2022-10-23T08:15:45.582Z,16.70
2022-10-23T08:18:32.290Z,16.78
2022-10-23T08:21:04.409Z,16.78
2022-10-23T08:23:32.023Z,16.79
2022-10-23T08:26:00.946Z,16.88
2022-10-23T08:28:30.696Z,16.87
2022-10-23T08:31:06.043Z,16.91
2022-10-23T08:33:34.083Z,16.68
2022-10-23T08:36:01.416Z,17.03
2022-10-23T08:38:34.068Z,17.06
2022-10-23T08:41:02.965Z,17.05
2022-10-23T08:43:56.870Z,17.06
2022-10-23T08:46:38.369Z,17.03
2022-10-23T08:49:31.767Z,17.17
2022-10-23T08:52:14.159Z,17.11
2022-10-23T08:55:23.933Z,17.01
2022-10-23T08:58:01.005Z,17.25
2022-10-23T09:00:29.989Z,17.17
2022-10-23T09:02:57.519Z,17.33
2022-10-23T09:05:24.604Z,17.50
2022-10-23T09:08:03.566Z,17.65
2022-10-23T09:10:57.255Z,17.71
2022-10-23T09:13:42.829Z,17.80
2022-10-23T09:16:42.613Z,17.92
2022-10-23T09:19:24.856Z,17.89
2022-10-23T09:21:52.464Z,17.96
2022-10-23T09:24:22.423Z,17.89
2022-10-23T09:26:52.610Z,17.91
2022-10-23T09:29:33.099Z,17.90
2022-10-23T09:32:06.198Z,18.02
2022-10-23T09:34:35.025Z,18.11
2022-10-23T09:37:19.434Z,18.12
2022-10-23T09:39:48.300Z,18.27
2022-10-23T09:42:26.944Z,18.29
2022-10-23T09:44:55.708Z,18.25
2022-10-23T09:47:27.050Z,18.55
2022-10-23T09:49:57.396Z,18.53
2022-10-23T09:52:32.673Z,18.62
2022-10-23T09:55:03.418Z,18.71
2022-10-23T09:57:45.318Z,18.71
2022-10-23T10:00:14.325Z,18.86
2022-10-23T10:02:44.394Z,18.90
2022-10-23T10:05:36.848Z,19.03
2022-10-23T10:08:22.672Z,19.12
2022-10-23T10:11:16.992Z,19.11
2022-10-23T10:13:54.167Z,19.22
2022-10-23T10:16:36.570Z,19.23
2022-10-23T10:19:20.355Z,19.31
2022-10-23T10:22:02.133Z,19.33
2022-10-23T10:24:35.697Z,19.25
2022-10-23T10:27:21.329Z,19.26
2022-10-23T10:30:10.782Z,19.38
2022-10-23T10:32:51.607Z,19.37
2022-10-23T10:35:19.265Z,19.37
2022-10-23T10:38:04.670Z,19.49
2022-10-23T10:40:49.197Z,19.45
2022-10-23T10:43:47.080Z,19.55
2022-10-23T10:46:26.884Z,19.74
2022-10-23T10:49:05.509Z,19.82
2022-10-23T10:52:12.539Z,19.89
2022-10-23T10:54:51.934Z,19.83
2022-10-23T10:57:40.319Z,20.09
2022-10-23T11:00:20.095Z,20.28
2022-10-23T11:02:57.774Z,20.07
2022-10-23T11:05:40.041Z,20.28
2022-10-23T11:08:18.263Z,20.41
2022-10-23T11:10:48.649Z,20.36
2022-10-23T11:13:28.275Z,20.43
2022-10-23T11:16:09.043Z,20.62
2022-10-23T11:18:38.315Z,20.79
2022-10-23T11:21:17.840Z,20.67
2022-10-23T11:24:15.521Z,20.71
2022-10-23T11:26:47.064Z,20.79
2022-10-23T11:29:34.107Z,21.19
2022-10-23T11:32:25.598Z,21.26
2022-10-23T11:35:07.825Z,21.34
2022-10-23T11:37:35.138Z,21.54
2022-10-23T11:40:08.221Z,21.57
2022-10-23T11:42:41.554Z,21.69
2022-10-23T11:45:33.145Z,21.75
2022-10-23T11:48:23.680Z,21.75
2022-10-23T11:50:56.461Z,21.72
2022-10-23T11:53:24.676Z,21.81
2022-10-23T11:56:13.439Z,21.79
2022-10-23T11:58:47.412Z,21.77
2022-10-23T12:01:26.486Z,21.95
2022-10-23T12:03:59.782Z,21.91
2022-10-23T12:06:57.441Z,21.92
2022-10-23T12:09:57.479Z,21.92
2022-10-23T12:12:31.030Z,21.79
2022-10-23T12:15:20.739Z,21.97
2022-10-23T12:17:49.884Z,21.96
2022-10-23T12:20:31.557Z,21.86
2022-10-23T12:23:20.700Z,21.91
2022-10-23T12:26:25.344Z,22.04
2022-10-23T12:28:59.598Z,21.93
2022-10-23T12:31:32.512Z,21.87
2022-10-23T12:34:15.305Z,21.92
2022-10-23T12:36:51.737Z,21.92
2022-10-23T12:39:34.025Z,21.93
2022-10-23T12:42:01.676Z,22.09
2022-10-23T12:44:29.740Z,22.09
2022-10-23T12:47:03.277Z,21.96
2022-10-23T12:49:35.702Z,21.99
2022-10-23T12:52:06.005Z,21.86
2022-10-23T12:54:38.484Z,22.10
2022-10-23T12:57:26.148Z,22.04
2022-10-23T13:00:06.394Z,21.92
2022-10-23T13:02:34.671Z,22.25
2022-10-23T13:05:08.643Z,22.19
2022-10-23T13:07:45.499Z,22.10
2022-10-23T13:10:24.251Z,22.04
2022-10-23T13:13:03.971Z,22.12
2022-10-23T13:15:44.613Z,22.02
2022-10-23T13:18:17.136Z,21.97
2022-10-23T13:20:57.882Z,22.01
2022-10-23T13:23:36.154Z,22.04
2022-10-23T13:26:24.028Z,22.01
2022-10-23T13:28:53.142Z,22.10
2022-10-23T13:31:34.465Z,22.01
2022-10-23T13:34:01.502Z,22.02
2022-10-23T13:36:32.470Z,21.99
2022-10-23T13:39:18.401Z,21.93
2022-10-23T13:41:47.990Z,22.02
2022-10-23T13:44:20.981Z,22.16
2022-10-23T13:46:48.949Z,22.07
2022-10-23T13:49:16.448Z,22.24
2022-10-23T13:51:50.259Z,22.13
2022-10-23T13:54:23.411Z,22.11
2022-10-23T13:56:51.178Z,22.46
2022-10-23T13:59:19.015Z,22.22
2022-10-23T14:01:47.987Z,22.24
2022-10-23T14:04:16.962Z,22.31
2022-10-23T14:06:44.700Z,22.12
2022-10-23T14:09:15.172Z,22.31
2022-10-23T14:11:42.741Z,22.26
2022-10-23T14:14:10.196Z,22.26
2022-10-23T14:16:37.571Z,22.31
2022-10-23T14:19:04.671Z,22.10
2022-10-23T14:21:31.925Z,22.15
2022-10-23T14:23:59.078Z,22.11
2022-10-23T14:26:30.587Z,22.13
2022-10-23T14:29:02.278Z,22.18
2022-10-23T14:31:34.223Z,22.04
2022-10-23T14:34:01.992Z,22.04
2022-10-23T14:36:38.807Z,22.15
2022-10-23T14:39:16.903Z,21.95
2022-10-23T14:41:44.047Z,21.86
2022-10-23T14:44:11.346Z,22.17
2022-10-23T14:46:41.273Z,22.03
2022-10-23T14:49:08.438Z,22.24
2022-10-23T14:51:36.256Z,22.10
2022-10-23T14:54:06.136Z,21.97
2022-10-23T14:56:37.715Z,21.87
2022-10-23T14:59:05.894Z,21.97
2022-10-23T15:01:48.239Z,21.78
2022-10-23T15:04:16.188Z,21.96
2022-10-23T15:06:45.666Z,22.01
2022-10-23T15:09:14.421Z,22.00
2022-10-23T15:11:42.642Z,21.89
2022-10-23T15:14:10.418Z,21.76
2022-10-23T15:16:41.774Z,21.75
2022-10-23T15:19:17.169Z,21.74
2022-10-23T15:21:47.873Z,21.92
2022-10-23T15:24:16.610Z,21.97
2022-10-23T15:26:48.171Z,21.87
2022-10-23T15:29:16.197Z,21.83
2022-10-23T15:31:53.445Z,21.72
2022-10-23T15:34:23.804Z,21.69
2022-10-23T15:36:52.496Z,21.75
2022-10-23T15:39:27.264Z,21.65
2022-10-23T15:41:57.649Z,21.48
2022-10-23T15:44:27.653Z,21.48
2022-10-23T15:46:57.260Z,21.61
2022-10-23T15:49:25.590Z,21.39
2022-10-23T15:51:53.535Z,21.48
2022-10-23T15:54:21.558Z,21.42
2022-10-23T15:56:51.861Z,21.38
2022-10-23T15:59:22.949Z,21.46
2022-10-23T16:01:50.882Z,21.35
2022-10-23T16:04:18.812Z,21.30
2022-10-23T16:06:46.383Z,21.18
2022-10-23T16:09:14.585Z,20.94
2022-10-23T16:11:42.915Z,20.84
2022-10-23T16:14:14.974Z,20.94
2022-10-23T16:16:43.562Z,20.93
2022-10-23T16:19:11.897Z,20.86
2022-10-23T16:21:39.371Z,20.84
2022-10-23T16:24:08.379Z,20.87
2022-10-23T16:26:37.667Z,20.75
2022-10-23T16:29:07.107Z,20.59
2022-10-23T16:31:36.114Z,20.65
2022-10-23T16:34:05.885Z,20.60
2022-10-23T16:36:33.961Z,20.59
2022-10-23T16:39:24.226Z,20.41
2022-10-23T16:42:10.381Z,20.33
2022-10-23T16:44:57.018Z,20.27
2022-10-23T16:47:27.555Z,20.28
2022-10-23T16:49:54.660Z,20.18
2022-10-23T16:52:21.726Z,20.06
2022-10-23T16:54:48.998Z,19.85
2022-10-23T16:57:16.892Z,19.78
2022-10-23T16:59:44.069Z,19.88
2022-10-23T17:02:14.885Z,19.79
2022-10-23T17:04:42.337Z,19.68
2022-10-23T17:07:11.805Z,19.67
2022-10-23T17:09:46.823Z,19.43
2022-10-23T17:12:15.841Z,19.53
2022-10-23T17:14:46.059Z,19.49
2022-10-23T17:17:13.854Z,19.35
2022-10-23T17:19:46.037Z,19.44
2022-10-23T17:22:15.746Z,19.27
2022-10-23T17:24:46.327Z,19.31
2022-10-23T17:27:16.395Z,19.18
2022-10-23T17:29:43.735Z,19.05
2022-10-23T17:32:11.226Z,19.06
2022-10-23T17:34:39.489Z,18.95
2022-10-23T17:37:08.167Z,18.69
2022-10-23T17:39:35.530Z,18.68
2022-10-23T17:42:03.976Z,18.66
2022-10-23T17:44:31.607Z,18.66
2022-10-23T17:46:59.780Z,18.50
2022-10-23T17:49:26.909Z,18.47
2022-10-23T17:51:57.148Z,18.38
2022-10-23T17:54:26.647Z,18.31
2022-10-23T17:56:54.382Z,18.24
2022-10-23T17:59:21.924Z,18.17
2022-10-23T18:01:49.947Z,18.07
2022-10-23T18:04:19.713Z,18.01
2022-10-23T18:06:50.047Z,17.98
2022-10-23T18:09:17.973Z,17.75
2022-10-23T18:11:48.058Z,17.83
2022-10-23T18:14:17.818Z,17.76
2022-10-23T18:16:46.359Z,17.73
2022-10-23T18:19:15.021Z,17.63
2022-10-23T18:21:42.197Z,17.61
2022-10-23T18:24:10.053Z,17.54
2022-10-23T18:26:39.799Z,17.33
2022-10-23T18:29:08.119Z,17.40
2022-10-23T18:31:37.475Z,17.32
2022-10-23T18:34:08.113Z,17.26
2022-10-23T18:36:38.832Z,17.21
2022-10-23T18:39:11.411Z,17.18
2022-10-23T18:41:41.001Z,17.09
2022-10-23T18:44:10.011Z,17.07
2022-10-23T18:46:37.667Z,17.03
2022-10-23T18:49:05.168Z,17.00
2022-10-23T18:51:34.968Z,17.01
2022-10-23T18:54:08.711Z,17.04
2022-10-23T18:56:36.199Z,17.07
2022-10-23T18:59:05.594Z,17.03
2022-10-23T19:01:33.176Z,17.00
2022-10-23T19:04:08.249Z,16.90
2022-10-23T19:06:36.350Z,16.98
2022-10-23T19:09:07.718Z,16.99
2022-10-23T19:11:36.245Z,17.00
2022-10-23T19:14:04.892Z,16.97
2022-10-23T19:17:19.808Z,17.01
2022-10-23T19:20:09.375Z,16.99
2022-10-23T19:22:43.474Z,17.00
2022-10-23T19:25:19.833Z,16.95
2022-10-23T19:27:48.899Z,17.01
2022-10-23T19:30:21.834Z,17.07
2022-10-23T19:32:51.219Z,17.16
2022-10-23T19:35:20.937Z,17.23
2022-10-23T19:37:49.044Z,16.96
2022-10-23T19:40:16.494Z,17.29
2022-10-23T19:42:44.413Z,17.29
2022-10-23T19:45:14.212Z,17.37
2022-10-23T19:47:42.609Z,17.32
2022-10-23T19:50:10.909Z,17.53
2022-10-23T19:52:39.156Z,17.57
2022-10-23T19:55:09.247Z,17.56
2022-10-23T19:57:37.491Z,17.76
2022-10-23T20:00:07.149Z,17.75
2022-10-23T20:02:37.530Z,17.70
2022-10-23T20:05:06.533Z,17.77
2022-10-23T20:07:35.287Z,17.80
2022-10-23T20:10:06.958Z,17.76
2022-10-23T20:12:34.518Z,17.64
2022-10-23T20:15:02.406Z,17.61
2022-10-23T20:17:31.067Z,17.58
2022-10-23T20:19:59.184Z,17.54
2022-10-23T20:22:27.012Z,17.47
2022-10-23T20:24:57.667Z,17.42
2022-10-23T20:27:26.329Z,17.33
2022-10-23T20:29:53.978Z,17.35
2022-10-23T20:32:21.308Z,17.32
2022-10-23T20:34:50.608Z,17.28
2022-10-23T20:37:18.107Z,17.20
2022-10-23T20:39:45.651Z,17.06
2022-10-23T20:42:13.003Z,17.12
2022-10-23T20:44:41.041Z,17.19
2022-10-23T20:47:08.601Z,17.15
2022-10-23T20:49:36.011Z,17.03
2022-10-23T20:52:03.812Z,17.12
2022-10-23T20:54:32.053Z,17.07
2022-10-23T20:56:59.533Z,17.07
2022-10-23T20:59:26.751Z,16.94
2022-10-23T21:01:55.638Z,17.10
2022-10-23T21:04:26.819Z,17.09
2022-10-23T21:07:11.762Z,17.04
2022-10-23T21:09:40.199Z,17.17
2022-10-23T21:12:08.392Z,17.16
2022-10-23T21:14:36.190Z,17.08
2022-10-23T21:17:03.411Z,17.20
2022-10-23T21:19:30.585Z,17.28
2022-10-23T21:21:58.086Z,17.31
2022-10-23T21:24:25.404Z,17.47
2022-10-23T21:26:52.755Z,17.40
2022-10-23T21:29:20.750Z,17.52
2022-10-23T21:31:59.939Z,17.57
2022-10-23T21:34:27.599Z,17.58
2022-10-23T21:39:43.445Z,17.63
2022-10-23T21:42:14.449Z,17.60
2022-10-23T21:44:42.549Z,17.57
2022-10-23T21:47:13.404Z,17.51
2022-10-23T21:49:40.631Z,17.49
2022-10-23T21:52:08.121Z,17.43
2022-10-23T21:54:35.456Z,17.39
2022-10-23T21:57:03.610Z,17.36
2022-10-23T21:59:33.123Z,17.32
2022-10-23T22:02:02.678Z,17.27
2022-10-23T22:04:29.825Z,17.31
2022-10-23T22:06:57.080Z,17.34
2022-10-23T22:09:24.467Z,17.27
2022-10-23T22:11:53.064Z,17.27
2022-10-23T22:14:21.205Z,17.25
2022-10-23T22:16:49.029Z,17.16
2022-10-23T22:19:17.788Z,17.13
2022-10-23T22:21:45.603Z,17.12
2022-10-23T22:24:13.240Z,17.10
2022-10-23T22:26:42.952Z,17.06
2022-10-23T22:29:13.892Z,17.01
2022-10-23T22:31:44.265Z,16.88
2022-10-23T22:34:26.777Z,16.95
2022-10-23T22:37:01.443Z,16.85
2022-10-23T22:39:28.674Z,16.84
2022-10-23T22:41:58.639Z,16.82
2022-10-23T22:44:25.773Z,16.79
2022-10-23T22:46:53.394Z,16.75
2022-10-23T22:49:20.490Z,16.69
2022-10-23T22:51:47.753Z,16.63
2022-10-23T22:54:14.973Z,16.68
2022-10-23T22:56:42.682Z,16.66
2022-10-23T22:59:09.779Z,16.62
2022-10-23T23:01:40.233Z,16.51
2022-10-23T23:04:19.876Z,16.61
2022-10-23T23:06:54.758Z,16.53
2022-10-23T23:09:21.795Z,16.57
2022-10-23T23:11:52.677Z,16.56
2022-10-23T23:14:23.674Z,16.50
2022-10-23T23:16:53.482Z,16.42
2022-10-23T23:19:23.094Z,16.50
2022-10-23T23:21:50.617Z,16.39
2022-10-23T23:24:17.750Z,16.45
2022-10-23T23:26:44.828Z,16.44
2022-10-23T23:29:12.251Z,16.50
2022-10-23T23:31:39.576Z,16.47
2022-10-23T23:34:06.930Z,16.38
2022-10-23T23:36:34.238Z,16.38
2022-10-23T23:39:01.461Z,16.38
2022-10-23T23:41:29.795Z,16.28
2022-10-23T23:43:58.675Z,16.32
2022-10-23T23:46:26.470Z,16.18
2022-10-23T23:48:53.654Z,16.18
2022-10-23T23:51:23.051Z,16.10
2022-10-23T23:53:50.912Z,16.17
2022-10-23T23:56:18.930Z,16.10
2022-10-23T23:58:46.182Z,16.08
